createdAt,value
2023-04-22T00:01:00.315Z,99975.06
2023-04-22T00:04:50.339Z,99979.02
2023-04-22T00:08:40.464Z,99976.09
2023-04-22T00:12:28.726Z,99974.44
2023-04-22T00:16:16.707Z,99971.86
2023-04-22T00:20:04.733Z,99973.94
2023-04-22T00:23:55.504Z,99972.40
2023-04-22T00:27:43.502Z,99967.81
2023-04-22T00:31:31.507Z,99974.37
2023-04-22T00:35:19.386Z,99971.16
2023-04-22T00:39:13.225Z,99975.67
2023-04-22T00:43:00.978Z,99972.55
2023-04-22T00:46:48.969Z,99975.30
2023-04-22T00:50:36.882Z,99981.20
2023-04-22T00:54:24.654Z,99979.59
2023-04-22T00:58:12.416Z,99984.73
2023-04-22T01:02:00.375Z,99983.98
2023-04-22T01:05:48.234Z,99983.61
2023-04-22T01:09:37.180Z,99988.05
2023-04-22T01:13:25.155Z,99986.95
2023-04-22T01:17:13.979Z,99991.44
2023-04-22T01:21:01.895Z,99991.06
2023-04-22T01:24:49.722Z,99992.00
2023-04-22T01:28:27.779Z,99988.17
2023-04-22T01:32:15.620Z,99983.41
2023-04-22T01:36:05.839Z,99986.59
2023-04-22T01:39:53.636Z,99987.33
2023-04-22T01:43:32.332Z,99989.78
2023-04-22T01:47:20.202Z,99987.52
2023-04-22T01:51:08.215Z,99989.17
2023-04-22T01:54:56.000Z,99990.80
2023-04-22T01:58:45.189Z,99989.70
2023-04-22T02:02:34.218Z,99988.79
2023-04-22T02:06:22.166Z,99992.73
2023-04-22T02:10:09.952Z,99995.45
2023-04-22T02:13:57.823Z,100002.52
2023-04-22T02:17:45.625Z,100001.73
2023-04-22T02:21:33.640Z,100004.32
2023-04-22T02:25:21.410Z,100005.73
2023-04-22T02:29:09.166Z,100002.66
2023-04-22T02:32:57.036Z,100001.71
2023-04-22T02:36:45.184Z,100000.20
2023-04-22T02:40:33.375Z,100005.30
2023-04-22T02:44:21.181Z,100005.47
2023-04-22T02:48:08.941Z,100006.10
2023-04-22T02:51:56.750Z,100004.73
2023-04-22T02:55:44.589Z,100013.07
2023-04-22T02:59:33.385Z,100014.66
2023-04-22T03:03:21.546Z,100017.98
2023-04-22T03:07:09.468Z,100013.59
2023-04-22T03:10:57.576Z,100018.97
2023-04-22T03:14:45.601Z,100021.70
2023-04-22T03:18:35.090Z,100024.46
2023-04-22T03:22:22.933Z,100027.38
2023-04-22T03:26:12.867Z,100027.08
2023-04-22T03:30:00.706Z,100038.59
2023-04-22T03:33:49.318Z,100038.01
2023-04-22T03:37:37.240Z,100041.02
2023-04-22T03:41:26.522Z,100042.73
2023-04-22T03:45:14.536Z,100040.70
2023-04-22T03:49:02.745Z,100044.75
2023-04-22T03:52:50.555Z,100049.88
2023-04-22T03:56:38.371Z,100046.53
2023-04-22T04:00:26.319Z,100055.21
2023-04-22T04:04:15.426Z,100060.36
2023-04-22T04:08:04.076Z,100060.57
2023-04-22T04:11:51.902Z,100067.38
2023-04-22T04:15:40.210Z,100064.66
2023-04-22T04:19:30.596Z,100070.41
2023-04-22T04:23:18.414Z,100069.92
2023-04-22T04:27:06.436Z,100072.77
2023-04-22T04:30:54.219Z,100072.98
2023-04-22T04:34:42.432Z,100076.08
2023-04-22T04:38:30.429Z,100078.81
2023-04-22T04:42:18.349Z,100076.98
2023-04-22T04:46:08.427Z,100081.64
2023-04-22T04:49:56.258Z,100079.23
2023-04-22T04:53:44.182Z,100081.71
2023-04-22T04:57:32.096Z,100083.57
2023-04-22T05:01:20.272Z,100084.60
2023-04-22T05:05:08.190Z,100085.29
2023-04-22T05:08:56.150Z,100085.31
2023-04-22T05:12:43.977Z,100083.39
2023-04-22T05:16:26.779Z,100087.73
2023-04-22T05:20:14.682Z,100091.26
2023-04-22T05:24:02.473Z,100094.52
2023-04-22T05:27:42.964Z,100096.91
2023-04-22T05:31:31.147Z,100098.19
2023-04-22T05:35:12.396Z,100096.89
2023-04-22T05:39:00.514Z,100101.41
2023-04-22T05:42:48.300Z,100101.02
2023-04-22T05:46:36.218Z,100107.31
2023-04-22T05:50:24.254Z,100103.05
2023-04-22T05:54:12.112Z,100105.78
2023-04-22T05:58:00.008Z,100106.56
2023-04-22T06:01:53.731Z,100106.90
2023-04-22T06:05:42.187Z,100109.42
2023-04-22T06:09:30.076Z,100113.52
2023-04-22T06:13:17.920Z,100109.95
2023-04-22T06:17:05.766Z,100113.70
2023-04-22T06:20:53.534Z,100110.42
2023-04-22T06:24:41.507Z,100110.98
2023-04-22T06:28:29.476Z,100110.13
2023-04-22T06:32:17.273Z,100107.27
2023-04-22T06:35:49.874Z,100114.95
2023-04-22T06:39:30.849Z,100113.45
2023-04-22T06:43:33.998Z,100115.32
2023-04-22T06:46:57.870Z,100123.56
2023-04-22T06:50:49.141Z,100118.86
2023-04-22T06:54:37.043Z,100122.48
2023-04-22T06:58:24.865Z,100129.20
2023-04-22T07:02:12.740Z,100128.45
2023-04-22T07:06:00.584Z,100131.90
2023-04-22T07:09:48.527Z,100132.73
2023-04-22T07:13:36.779Z,100135.42
2023-04-22T07:17:24.590Z,100132.00
2023-04-22T07:21:13.729Z,100135.85
2023-04-22T07:25:01.618Z,100139.86
2023-04-22T07:28:49.437Z,100145.31
2023-04-22T07:32:37.331Z,100149.82
2023-04-22T07:36:25.152Z,100151.37
2023-04-22T07:40:15.096Z,100151.34
2023-04-22T07:44:05.016Z,100160.89
2023-04-22T07:47:52.926Z,100164.20
2023-04-22T07:51:40.761Z,100166.23
2023-04-22T07:55:30.000Z,100166.24
2023-04-22T07:59:18.547Z,100169.63
2023-04-22T08:03:08.448Z,100167.59
2023-04-22T08:06:56.422Z,100167.25
2023-04-22T08:10:45.185Z,100167.23
2023-04-22T08:14:33.092Z,100165.38
2023-04-22T08:18:21.019Z,100166.89
2023-04-22T08:22:08.776Z,100168.33
2023-04-22T08:25:56.593Z,100170.98
2023-04-22T08:29:44.747Z,100174.52
2023-04-22T08:33:32.960Z,100173.42
2023-04-22T08:37:20.689Z,100176.27
2023-04-22T08:41:14.837Z,100174.11
2023-04-22T08:45:02.655Z,100179.70
2023-04-22T08:48:52.846Z,100175.98
2023-04-22T08:52:40.881Z,100178.30
2023-04-22T08:56:28.761Z,100181.05
2023-04-22T09:00:16.590Z,100180.77
2023-04-22T09:04:04.923Z,100182.31
2023-04-22T09:07:52.757Z,100183.06
2023-04-22T09:11:42.696Z,100182.61
2023-04-22T09:15:30.619Z,100183.06
2023-04-22T09:19:24.134Z,100174.48
2023-04-22T09:23:27.142Z,100175.54
2023-04-22T09:27:14.961Z,100172.00
2023-04-22T09:31:02.922Z,100172.49
2023-04-22T09:34:41.791Z,100174.81
2023-04-22T09:38:28.691Z,100174.85
2023-04-22T09:42:16.949Z,100172.76
2023-04-22T09:45:48.112Z,100174.67
2023-04-22T09:49:36.641Z,100168.42
2023-04-22T09:53:24.521Z,100169.59
2023-04-22T09:57:28.450Z,100172.08
2023-04-22T10:01:16.538Z,100173.40
2023-04-22T10:05:04.406Z,100173.86
2023-04-22T10:08:52.169Z,100175.52
2023-04-22T10:12:40.626Z,100174.65
2023-04-22T10:16:30.979Z,100167.75
2023-04-22T10:20:18.807Z,100168.48
2023-04-22T10:24:06.673Z,100168.17
2023-04-22T10:27:57.385Z,100169.90
2023-04-22T10:31:47.845Z,100171.88
2023-04-22T10:35:47.817Z,100168.97
2023-04-22T10:39:35.826Z,100171.13
2023-04-22T10:43:26.627Z,100176.45
2023-04-22T10:47:32.741Z,100172.00
2023-04-22T10:51:24.196Z,100172.58
2023-04-22T10:53:56.012Z,100171.72
2023-04-22T10:56:23.475Z,100172.17
2023-04-22T10:59:01.446Z,100170.23
2023-04-22T11:01:35.066Z,100167.95
2023-04-22T11:04:26.891Z,100174.22
2023-04-22T11:07:40.190Z,100172.09
2023-04-22T11:10:09.181Z,100170.55
2023-04-22T11:12:50.158Z,100178.84
2023-04-22T11:15:19.432Z,100178.11
2023-04-22T11:17:47.747Z,100183.08
2023-04-22T11:20:18.499Z,100186.46
2023-04-22T11:23:08.121Z,100187.50
2023-04-22T11:25:41.490Z,100189.21
2023-04-22T11:28:28.268Z,100193.19
2023-04-22T11:31:09.995Z,100199.91
2023-04-22T11:33:44.111Z,100195.48
2023-04-22T11:36:43.440Z,100199.00
2023-04-22T11:39:22.771Z,100200.75
2023-04-22T11:42:13.843Z,100202.20
2023-04-22T11:45:39.351Z,100204.24
2023-04-22T11:49:21.286Z,100202.63
2023-04-22T11:53:24.848Z,100205.23
2023-04-22T11:57:12.611Z,100198.89
2023-04-22T12:00:32.641Z,100204.73
2023-04-22T12:03:17.494Z,100204.96
2023-04-22T12:05:58.537Z,100198.64
2023-04-22T12:08:46.899Z,100196.94
2023-04-22T12:11:24.767Z,100202.95
2023-04-22T12:13:58.767Z,100200.31
2023-04-22T12:17:28.053Z,100194.91
2023-04-22T12:20:08.873Z,100195.48
2023-04-22T12:22:41.225Z,100195.27
2023-04-22T12:25:09.517Z,100195.49
2023-04-22T12:28:34.895Z,100195.91
2023-04-22T12:31:10.687Z,100194.39
2023-04-22T12:33:41.898Z,100194.55
2023-04-22T12:36:09.037Z,100194.31
2023-04-22T12:38:38.813Z,100190.08
2023-04-22T12:41:16.110Z,100192.82
2023-04-22T12:43:48.599Z,100194.33
2023-04-22T12:46:16.308Z,100191.38
2023-04-22T12:48:46.091Z,100191.42
2023-04-22T12:52:17.143Z,100195.14
2023-04-22T12:56:07.440Z,100193.46
2023-04-22T12:59:48.454Z,100191.97
2023-04-22T13:03:36.145Z,100190.48
2023-04-22T13:07:24.141Z,100194.16
2023-04-22T13:11:12.080Z,100194.97
2023-04-22T13:14:59.864Z,100193.80
2023-04-22T13:18:47.768Z,100191.21
2023-04-22T13:22:36.029Z,100191.33
2023-04-22T13:26:23.030Z,100189.19
2023-04-22T13:30:04.008Z,100189.27
2023-04-22T13:33:54.381Z,100189.95
2023-04-22T13:37:21.031Z,100191.09
2023-04-22T13:40:49.901Z,100190.82
2023-04-22T13:43:59.089Z,100188.60
2023-04-22T13:47:20.174Z,100190.72
2023-04-22T13:50:59.014Z,100189.95
2023-04-22T13:54:46.799Z,100191.77
2023-04-22T13:58:35.340Z,100185.07
2023-04-22T14:02:24.594Z,100185.98
2023-04-22T16:30:47.106Z,100260.35
2023-04-22T16:33:14.129Z,100265.78
2023-04-22T16:35:41.035Z,100271.73
2023-04-22T16:38:08.043Z,100271.31
2023-04-22T16:40:36.913Z,100271.42
2023-04-22T16:43:04.648Z,100272.70
2023-04-22T16:45:31.635Z,100275.77
2023-04-22T16:47:58.620Z,100272.68
2023-04-22T16:50:25.559Z,100273.11
2023-04-22T16:52:53.105Z,100278.39
2023-04-22T16:55:20.199Z,100276.94
2023-04-22T16:57:50.011Z,100279.39
2023-04-22T17:00:17.566Z,100283.88
2023-04-22T17:02:44.910Z,100289.89
2023-04-22T17:05:12.015Z,100289.23
2023-04-22T17:07:39.188Z,100291.34
2023-04-22T17:10:07.387Z,100290.23
2023-04-22T17:12:34.522Z,100297.64
2023-04-22T17:15:01.354Z,100303.26
2023-04-22T17:17:28.501Z,100305.21
2023-04-22T17:19:55.313Z,100310.95
2023-04-22T17:22:24.225Z,100310.67
2023-04-22T17:24:51.353Z,100312.17
2023-04-22T17:27:18.218Z,100311.44
2023-04-22T17:29:45.910Z,100313.91
2023-04-22T17:32:12.791Z,100317.41
2023-04-22T17:34:39.942Z,100320.11
2023-04-22T17:37:07.157Z,100322.25
2023-04-22T17:39:34.000Z,100327.42
2023-04-22T17:42:01.914Z,100331.44
2023-04-22T17:44:29.012Z,100333.98
2023-04-22T17:46:55.867Z,100334.39
2023-04-22T17:49:22.733Z,100341.27
2023-04-22T17:51:49.772Z,100341.84
2023-04-22T17:54:16.737Z,100344.52
2023-04-22T17:56:43.870Z,100352.61
2023-04-22T17:59:10.818Z,100354.84
2023-04-22T18:01:38.498Z,100360.30
2023-04-22T18:04:05.937Z,100362.02
2023-04-22T18:06:33.298Z,100366.33
2023-04-22T18:09:00.129Z,100367.59
2023-04-22T18:11:27.359Z,100369.86
2023-04-22T18:13:54.621Z,100372.15
2023-04-22T18:16:21.484Z,100375.61
2023-04-22T18:18:48.513Z,100378.52
2023-04-22T18:21:15.527Z,100375.64
2023-04-22T18:23:42.320Z,100378.19
2023-04-22T18:26:10.711Z,100378.59
2023-04-22T18:28:42.916Z,100380.83
2023-04-22T18:31:09.789Z,100381.01
2023-04-22T18:33:38.545Z,100384.09
2023-04-22T18:36:06.231Z,100383.11
2023-04-22T18:38:33.080Z,100382.25
2023-04-22T18:40:59.904Z,100383.72
2023-04-22T18:43:26.713Z,100379.04
2023-04-22T18:45:53.463Z,100378.30
2023-04-22T18:48:21.782Z,100385.16
2023-04-22T18:50:48.624Z,100387.02
2023-04-22T18:53:16.592Z,100391.43
2023-04-22T18:55:43.614Z,100391.80
2023-04-22T18:58:10.479Z,100396.52
2023-04-22T19:00:37.350Z,100393.02
2023-04-22T19:03:04.362Z,100395.39
2023-04-22T19:05:31.689Z,100395.98
2023-04-22T19:07:58.908Z,100401.69
2023-04-22T19:10:26.169Z,100402.53
2023-04-22T19:12:53.136Z,100403.02
2023-04-22T19:15:20.890Z,100398.30
2023-04-22T19:17:47.897Z,100404.73
2023-04-22T19:20:14.758Z,100403.30
2023-04-22T19:22:43.123Z,100407.35
2023-04-22T19:25:11.345Z,100407.27
2023-04-22T19:27:38.835Z,100407.06
2023-04-22T19:30:06.198Z,100407.04
2023-04-22T19:32:34.262Z,100412.08
2023-04-22T19:35:03.678Z,100411.02
2023-04-22T19:37:31.536Z,100407.61
2023-04-22T19:39:58.333Z,100411.58
2023-04-22T19:42:25.328Z,100416.48
2023-04-22T19:44:52.154Z,100421.79
2023-04-22T19:47:19.067Z,100421.38
2023-04-22T19:49:46.169Z,100421.29
2023-04-22T19:52:14.784Z,100421.25
2023-04-22T19:54:41.638Z,100423.35
2023-04-22T19:57:09.682Z,100424.30
2023-04-22T19:59:40.962Z,100429.63
2023-04-22T20:02:09.250Z,100429.62
2023-04-22T20:04:37.188Z,100434.58
2023-04-22T20:07:04.020Z,100433.66
2023-04-22T20:09:31.154Z,100431.80
2023-04-22T20:11:58.995Z,100430.31
2023-04-22T20:14:26.080Z,100430.11
2023-04-22T20:16:53.747Z,100432.95
2023-04-22T20:19:20.701Z,100431.64
2023-04-22T20:21:47.723Z,100434.94
2023-04-22T20:24:19.148Z,100435.16
2023-04-22T20:26:47.356Z,100441.58
2023-04-22T20:29:16.886Z,100448.98
2023-04-22T20:31:43.760Z,100446.91
2023-04-22T20:34:10.831Z,100447.95
2023-04-22T20:36:38.420Z,100443.95
2023-04-22T20:39:05.407Z,100446.42
2023-04-22T20:41:40.547Z,100445.42
2023-04-22T20:44:07.974Z,100443.68
2023-04-22T20:46:34.907Z,100444.04
2023-04-22T20:49:01.869Z,100444.73
2023-04-22T20:51:29.141Z,100443.29
2023-04-22T20:53:55.973Z,100442.08
2023-04-22T20:56:24.386Z,100442.54
2023-04-22T20:58:51.333Z,100448.56
2023-04-22T21:01:18.945Z,100447.27
2023-04-22T21:03:51.292Z,100445.98
2023-04-22T21:06:18.679Z,100442.85
2023-04-22T21:08:48.104Z,100442.11
2023-04-22T21:11:15.116Z,100441.64
2023-04-22T21:13:44.774Z,100439.70
2023-04-22T21:16:12.735Z,100441.12
2023-04-22T21:18:40.774Z,100435.41
2023-04-22T21:21:07.728Z,100441.00
2023-04-22T21:23:34.663Z,100443.77
2023-04-22T21:26:01.923Z,100444.26
2023-04-22T21:28:29.454Z,100448.54
2023-04-22T21:30:56.556Z,100456.69
2023-04-22T21:33:24.677Z,100457.11
2023-04-22T21:35:51.659Z,100458.88
2023-04-22T21:38:19.243Z,100454.94
2023-04-22T21:40:49.271Z,100456.17
2023-04-22T21:43:16.242Z,100454.08
2023-04-22T21:45:42.991Z,100454.52
2023-04-22T21:48:09.909Z,100454.20
2023-04-22T21:50:36.979Z,100454.60
2023-04-22T21:53:03.780Z,100456.79
2023-04-22T21:55:30.730Z,100459.90
2023-04-22T21:57:57.767Z,100457.11
2023-04-22T22:00:25.370Z,100457.43
2023-04-22T22:02:52.488Z,100462.06
2023-04-22T22:05:19.422Z,100458.52
2023-04-22T22:07:46.438Z,100458.20
2023-04-22T22:10:15.772Z,100461.73
2023-04-22T22:12:42.905Z,100460.47
2023-04-22T22:15:10.988Z,100464.84
